sensor_id;sensor_type;location;lat;lon;timestamp;P1;durP1;ratioP1;P2;durP2;ratioP2
9761;SDS011;4920;49.594;11.022;2023-03-03T00:01:12;26.50;;;15.23;;
9761;SDS011;4920;49.594;11.022;2023-03-03T00:03:41;27.03;;;15.03;;
9761;SDS011;4920;49.594;11.022;2023-03-03T00:06:11;26.90;;;14.97;;
9761;SDS011;4920;49.594;11.022;2023-03-03T00:08:44;26.87;;;15.43;;
9761;SDS011;4920;49.594;11.022;2023-03-03T00:11:13;24.20;;;14.93;;
9761;SDS011;4920;49.594;11.022;2023-03-03T00:13:43;26.60;;;15.73;;
9761;SDS011;4920;49.594;11.022;2023-03-03T00:16:18;27.40;;;14.93;;
9761;SDS011;4920;49.594;11.022;2023-03-03T00:18:50;29.73;;;15.47;;
9761;SDS011;4920;49.594;11.022;2023-03-03T00:21:24;27.57;;;14.73;;
9761;SDS011;4920;49.594;11.022;2023-03-03T00:23:58;26.70;;;15.80;;
9761;SDS011;4920;49.594;11.022;2023-03-03T00:26:44;26.70;;;15.70;;
9761;SDS011;4920;49.594;11.022;2023-03-03T00:29:31;27.53;;;14.97;;
9761;SDS011;4920;49.594;11.022;2023-03-03T00:32:23;25.43;;;15.23;;
9761;SDS011;4920;49.594;11.022;2023-03-03T00:34:54;30.37;;;15.30;;
9761;SDS011;4920;49.594;11.022;2023-03-03T00:37:29;27.63;;;15.37;;
9761;SDS011;4920;49.594;11.022;2023-03-03T00:40:12;24.00;;;14.80;;
9761;SDS011;4920;49.594;11.022;2023-03-03T00:42:50;25.73;;;15.30;;
9761;SDS011;4920;49.594;11.022;2023-03-03T00:45:28;26.37;;;15.27;;
9761;SDS011;4920;49.594;11.022;2023-03-03T00:48:01;28.93;;;15.80;;
9761;SDS011;4920;49.594;11.022;2023-03-03T00:50:46;27.20;;;14.90;;
9761;SDS011;4920;49.594;11.022;2023-03-03T00:53:15;29.00;;;15.53;;
9761;SDS011;4920;49.594;11.022;2023-03-03T00:55:46;21.77;;;13.87;;
9761;SDS011;4920;49.594;11.022;2023-03-03T00:58:16;26.63;;;14.33;;
9761;SDS011;4920;49.594;11.022;2023-03-03T01:00:47;26.10;;;15.17;;
9761;SDS011;4920;49.594;11.022;2023-03-03T01:03:21;24.57;;;14.73;;
9761;SDS011;4920;49.594;11.022;2023-03-03T01:05:52;25.23;;;14.63;;
9761;SDS011;4920;49.594;11.022;2023-03-03T01:08:21;27.37;;;15.47;;
9761;SDS011;4920;49.594;11.022;2023-03-03T01:10:51;26.17;;;15.40;;
9761;SDS011;4920;49.594;11.022;2023-03-03T01:13:23;25.87;;;14.37;;
9761;SDS011;4920;49.594;11.022;2023-03-03T01:15:54;24.17;;;14.60;;
9761;SDS011;4920;49.594;11.022;2023-03-03T01:18:24;27.13;;;14.83;;
9761;SDS011;4920;49.594;11.022;2023-03-03T01:20:53;25.30;;;13.97;;
9761;SDS011;4920;49.594;11.022;2023-03-03T01:23:22;24.83;;;14.70;;
9761;SDS011;4920;49.594;11.022;2023-03-03T01:25:51;25.57;;;14.40;;
9761;SDS011;4920;49.594;11.022;2023-03-03T01:28:20;28.03;;;14.60;;
9761;SDS011;4920;49.594;11.022;2023-03-03T01:30:50;26.00;;;14.07;;
9761;SDS011;4920;49.594;11.022;2023-03-03T01:33:19;25.90;;;14.30;;
9761;SDS011;4920;49.594;11.022;2023-03-03T01:35:49;26.13;;;14.47;;
9761;SDS011;4920;49.594;11.022;2023-03-03T01:38:18;25.93;;;14.47;;
9761;SDS011;4920;49.594;11.022;2023-03-03T01:40:51;27.97;;;15.00;;
9761;SDS011;4920;49.594;11.022;2023-03-03T01:43:21;26.47;;;14.57;;
9761;SDS011;4920;49.594;11.022;2023-03-03T01:48:55;26.80;;;14.70;;
9761;SDS011;4920;49.594;11.022;2023-03-03T01:51:31;24.43;;;14.17;;
9761;SDS011;4920;49.594;11.022;2023-03-03T01:54:03;28.33;;;15.30;;
9761;SDS011;4920;49.594;11.022;2023-03-03T01:56:34;26.87;;;15.03;;
9761;SDS011;4920;49.594;11.022;2023-03-03T01:59:02;27.73;;;15.03;;
9761;SDS011;4920;49.594;11.022;2023-03-03T02:01:34;30.60;;;15.60;;
9761;SDS011;4920;49.594;11.022;2023-03-03T02:04:03;27.33;;;15.13;;
9761;SDS011;4920;49.594;11.022;2023-03-03T02:06:34;25.90;;;14.97;;
9761;SDS011;4920;49.594;11.022;2023-03-03T02:09:06;26.23;;;14.77;;
9761;SDS011;4920;49.594;11.022;2023-03-03T02:11:43;31.67;;;15.70;;
9761;SDS011;4920;49.594;11.022;2023-03-03T02:14:13;28.50;;;15.53;;
9761;SDS011;4920;49.594;11.022;2023-03-03T02:16:42;29.30;;;15.63;;
9761;SDS011;4920;49.594;11.022;2023-03-03T02:19:14;28.43;;;16.73;;
9761;SDS011;4920;49.594;11.022;2023-03-03T02:21:49;27.03;;;15.43;;
9761;SDS011;4920;49.594;11.022;2023-03-03T02:24:21;28.73;;;15.70;;
9761;SDS011;4920;49.594;11.022;2023-03-03T02:26:56;30.30;;;16.50;;
9761;SDS011;4920;49.594;11.022;2023-03-03T02:29:26;30.27;;;15.90;;
9761;SDS011;4920;49.594;11.022;2023-03-03T02:31:54;30.73;;;15.67;;
9761;SDS011;4920;49.594;11.022;2023-03-03T02:34:25;28.03;;;16.03;;
9761;SDS011;4920;49.594;11.022;2023-03-03T02:36:54;28.67;;;16.37;;
9761;SDS011;4920;49.594;11.022;2023-03-03T02:39:23;24.93;;;15.73;;
9761;SDS011;4920;49.594;11.022;2023-03-03T02:41:53;29.17;;;16.10;;
9761;SDS011;4920;49.594;11.022;2023-03-03T02:44:34;28.00;;;16.10;;
9761;SDS011;4920;49.594;11.022;2023-03-03T02:47:03;30.60;;;16.67;;
9761;SDS011;4920;49.594;11.022;2023-03-03T02:49:33;26.33;;;15.87;;
9761;SDS011;4920;49.594;11.022;2023-03-03T02:52:03;33.97;;;17.23;;
9761;SDS011;4920;49.594;11.022;2023-03-03T02:54:37;30.67;;;16.53;;
9761;SDS011;4920;49.594;11.022;2023-03-03T02:57:08;31.30;;;17.10;;
9761;SDS011;4920;49.594;11.022;2023-03-03T02:59:36;30.00;;;17.07;;
9761;SDS011;4920;49.594;11.022;2023-03-03T03:02:09;31.53;;;16.97;;
9761;SDS011;4920;49.594;11.022;2023-03-03T03:04:38;27.80;;;16.00;;
9761;SDS011;4920;49.594;11.022;2023-03-03T03:07:09;28.47;;;16.87;;
9761;SDS011;4920;49.594;11.022;2023-03-03T03:09:38;32.17;;;17.77;;
9761;SDS011;4920;49.594;11.022;2023-03-03T03:12:08;29.67;;;16.70;;
9761;SDS011;4920;49.594;11.022;2023-03-03T03:14:37;30.17;;;16.90;;
9761;SDS011;4920;49.594;11.022;2023-03-03T03:17:08;30.40;;;17.77;;
9761;SDS011;4920;49.594;11.022;2023-03-03T03:19:39;31.03;;;17.60;;
9761;SDS011;4920;49.594;11.022;2023-03-03T03:22:07;29.23;;;16.83;;
9761;SDS011;4920;49.594;11.022;2023-03-03T03:24:37;32.73;;;17.53;;
9761;SDS011;4920;49.594;11.022;2023-03-03T03:27:09;30.77;;;17.13;;
9761;SDS011;4920;49.594;11.022;2023-03-03T03:29:37;32.90;;;18.37;;
9761;SDS011;4920;49.594;11.022;2023-03-03T03:32:07;28.47;;;17.43;;
9761;SDS011;4920;49.594;11.022;2023-03-03T03:34:36;32.23;;;17.97;;
9761;SDS011;4920;49.594;11.022;2023-03-03T03:37:06;31.63;;;17.77;;
9761;SDS011;4920;49.594;11.022;2023-03-03T03:39:36;33.13;;;18.20;;
9761;SDS011;4920;49.594;11.022;2023-03-03T03:42:05;32.97;;;18.53;;
9761;SDS011;4920;49.594;11.022;2023-03-03T03:44:35;35.23;;;18.43;;
9761;SDS011;4920;49.594;11.022;2023-03-03T03:47:04;34.40;;;19.47;;
9761;SDS011;4920;49.594;11.022;2023-03-03T03:49:33;35.87;;;19.47;;
9761;SDS011;4920;49.594;11.022;2023-03-03T03:52:02;35.90;;;19.13;;
9761;SDS011;4920;49.594;11.022;2023-03-03T03:54:32;34.70;;;18.93;;
9761;SDS011;4920;49.594;11.022;2023-03-03T03:57:01;35.33;;;19.20;;
9761;SDS011;4920;49.594;11.022;2023-03-03T03:59:30;35.87;;;19.83;;
9761;SDS011;4920;49.594;11.022;2023-03-03T04:02:01;36.47;;;19.20;;
9761;SDS011;4920;49.594;11.022;2023-03-03T04:04:30;35.13;;;18.80;;
9761;SDS011;4920;49.594;11.022;2023-03-03T04:07:00;38.20;;;19.70;;
9761;SDS011;4920;49.594;11.022;2023-03-03T04:09:28;34.30;;;19.13;;
9761;SDS011;4920;49.594;11.022;2023-03-03T04:11:57;34.03;;;20.40;;
9761;SDS011;4920;49.594;11.022;2023-03-03T04:14:27;38.53;;;20.50;;
9761;SDS011;4920;49.594;11.022;2023-03-03T04:16:56;39.10;;;20.73;;
9761;SDS011;4920;49.594;11.022;2023-03-03T04:19:26;39.30;;;20.03;;
9761;SDS011;4920;49.594;11.022;2023-03-03T04:21:55;37.63;;;20.13;;
9761;SDS011;4920;49.594;11.022;2023-03-03T04:24:24;40.23;;;20.97;;
9761;SDS011;4920;49.594;11.022;2023-03-03T04:26:54;38.40;;;21.03;;
9761;SDS011;4920;49.594;11.022;2023-03-03T04:29:22;39.50;;;20.97;;
9761;SDS011;4920;49.594;11.022;2023-03-03T04:31:51;38.60;;;20.67;;
9761;SDS011;4920;49.594;11.022;2023-03-03T04:34:20;41.00;;;21.70;;
9761;SDS011;4920;49.594;11.022;2023-03-03T04:36:50;43.10;;;22.63;;
9761;SDS011;4920;49.594;11.022;2023-03-03T04:39:18;40.77;;;22.13;;
9761;SDS011;4920;49.594;11.022;2023-03-03T04:41:47;43.27;;;21.83;;
9761;SDS011;4920;49.594;11.022;2023-03-03T04:44:16;43.83;;;22.27;;
9761;SDS011;4920;49.594;11.022;2023-03-03T04:46:46;41.67;;;22.03;;
9761;SDS011;4920;49.594;11.022;2023-03-03T04:49:15;42.83;;;22.43;;
9761;SDS011;4920;49.594;11.022;2023-03-03T04:51:44;45.83;;;23.77;;
9761;SDS011;4920;49.594;11.022;2023-03-03T04:54:15;39.80;;;21.63;;
9761;SDS011;4920;49.594;11.022;2023-03-03T04:56:43;47.37;;;23.70;;
9761;SDS011;4920;49.594;11.022;2023-03-03T04:59:12;46.40;;;23.23;;
9761;SDS011;4920;49.594;11.022;2023-03-03T05:01:41;40.70;;;22.33;;
9761;SDS011;4920;49.594;11.022;2023-03-03T05:04:13;44.97;;;23.37;;
9761;SDS011;4920;49.594;11.022;2023-03-03T05:06:41;43.90;;;22.77;;
9761;SDS011;4920;49.594;11.022;2023-03-03T05:09:10;45.87;;;24.20;;
9761;SDS011;4920;49.594;11.022;2023-03-03T05:11:40;46.37;;;23.03;;
9761;SDS011;4920;49.594;11.022;2023-03-03T05:14:09;47.37;;;24.43;;
9761;SDS011;4920;49.594;11.022;2023-03-03T05:16:38;50.23;;;23.83;;
9761;SDS011;4920;49.594;11.022;2023-03-03T05:19:06;48.00;;;23.73;;
9761;SDS011;4920;49.594;11.022;2023-03-03T05:21:35;49.97;;;25.17;;
9761;SDS011;4920;49.594;11.022;2023-03-03T05:24:08;48.50;;;24.07;;
9761;SDS011;4920;49.594;11.022;2023-03-03T05:26:40;46.93;;;24.30;;
9761;SDS011;4920;49.594;11.022;2023-03-03T05:29:09;50.97;;;24.83;;
9761;SDS011;4920;49.594;11.022;2023-03-03T05:31:37;46.07;;;23.77;;
9761;SDS011;4920;49.594;11.022;2023-03-03T05:34:07;50.07;;;24.43;;
9761;SDS011;4920;49.594;11.022;2023-03-03T05:36:35;48.57;;;24.07;;
9761;SDS011;4920;49.594;11.022;2023-03-03T05:39:04;47.37;;;23.63;;
9761;SDS011;4920;49.594;11.022;2023-03-03T05:41:33;45.80;;;24.37;;
9761;SDS011;4920;49.594;11.022;2023-03-03T05:44:04;47.53;;;24.80;;
9761;SDS011;4920;49.594;11.022;2023-03-03T05:46:33;47.53;;;23.73;;
9761;SDS011;4920;49.594;11.022;2023-03-03T05:49:02;43.13;;;23.57;;
9761;SDS011;4920;49.594;11.022;2023-03-03T05:51:30;45.87;;;23.07;;
9761;SDS011;4920;49.594;11.022;2023-03-03T05:54:03;49.70;;;23.47;;
9761;SDS011;4920;49.594;11.022;2023-03-03T05:56:32;51.33;;;24.17;;
9761;SDS011;4920;49.594;11.022;2023-03-03T05:59:01;48.80;;;25.93;;
9761;SDS011;4920;49.594;11.022;2023-03-03T06:01:31;46.87;;;24.80;;
9761;SDS011;4920;49.594;11.022;2023-03-03T06:04:00;48.17;;;24.63;;
9761;SDS011;4920;49.594;11.022;2023-03-03T06:06:29;52.13;;;25.97;;
9761;SDS011;4920;49.594;11.022;2023-03-03T06:08:58;54.43;;;25.67;;
9761;SDS011;4920;49.594;11.022;2023-03-03T06:11:26;46.37;;;23.93;;
9761;SDS011;4920;49.594;11.022;2023-03-03T06:13:55;51.17;;;25.50;;
9761;SDS011;4920;49.594;11.022;2023-03-03T06:19:19;50.77;;;25.43;;
9761;SDS011;4920;49.594;11.022;2023-03-03T06:21:48;56.07;;;27.73;;
9761;SDS011;4920;49.594;11.022;2023-03-03T06:24:17;50.43;;;25.27;;
9761;SDS011;4920;49.594;11.022;2023-03-03T06:26:45;56.10;;;26.87;;
9761;SDS011;4920;49.594;11.022;2023-03-03T06:29:14;56.27;;;28.07;;
9761;SDS011;4920;49.594;11.022;2023-03-03T06:31:43;49.70;;;26.07;;
9761;SDS011;4920;49.594;11.022;2023-03-03T06:34:13;55.00;;;28.33;;
9761;SDS011;4920;49.594;11.022;2023-03-03T06:36:42;57.53;;;26.47;;
9761;SDS011;4920;49.594;11.022;2023-03-03T06:39:10;51.37;;;27.03;;
9761;SDS011;4920;49.594;11.022;2023-03-03T06:41:39;51.60;;;26.43;;
9761;SDS011;4920;49.594;11.022;2023-03-03T06:44:08;53.27;;;27.20;;
9761;SDS011;4920;49.594;11.022;2023-03-03T06:46:37;53.17;;;26.97;;
9761;SDS011;4920;49.594;11.022;2023-03-03T06:52:08;48.27;;;25.87;;
9761;SDS011;4920;49.594;11.022;2023-03-03T06:54:40;53.30;;;27.53;;
9761;SDS011;4920;49.594;11.022;2023-03-03T06:57:13;49.47;;;26.10;;
9761;SDS011;4920;49.594;11.022;2023-03-03T06:59:44;55.97;;;26.67;;
9761;SDS011;4920;49.594;11.022;2023-03-03T07:02:16;56.90;;;27.10;;
9761;SDS011;4920;49.594;11.022;2023-03-03T07:04:51;49.60;;;25.97;;
9761;SDS011;4920;49.594;11.022;2023-03-03T07:07:23;54.63;;;27.93;;
9761;SDS011;4920;49.594;11.022;2023-03-03T07:09:53;51.93;;;27.57;;
9761;SDS011;4920;49.594;11.022;2023-03-03T07:12:25;53.13;;;26.77;;
9761;SDS011;4920;49.594;11.022;2023-03-03T07:14:57;54.50;;;26.47;;
9761;SDS011;4920;49.594;11.022;2023-03-03T07:17:39;49.93;;;25.53;;
9761;SDS011;4920;49.594;11.022;2023-03-03T07:20:16;56.67;;;26.90;;
9761;SDS011;4920;49.594;11.022;2023-03-03T07:22:46;51.90;;;26.87;;
9761;SDS011;4920;49.594;11.022;2023-03-03T07:25:19;51.80;;;26.33;;
9761;SDS011;4920;49.594;11.022;2023-03-03T07:27:54;51.03;;;26.43;;
9761;SDS011;4920;49.594;11.022;2023-03-03T07:30:27;48.97;;;25.97;;
9761;SDS011;4920;49.594;11.022;2023-03-03T07:32:56;51.23;;;26.47;;
9761;SDS011;4920;49.594;11.022;2023-03-03T07:35:35;50.83;;;25.87;;
9761;SDS011;4920;49.594;11.022;2023-03-03T07:38:24;52.57;;;26.17;;
9761;SDS011;4920;49.594;11.022;2023-03-03T07:40:59;51.90;;;25.87;;
9761;SDS011;4920;49.594;11.022;2023-03-03T07:43:29;52.90;;;26.63;;
9761;SDS011;4920;49.594;11.022;2023-03-03T07:46:04;52.07;;;26.63;;
9761;SDS011;4920;49.594;11.022;2023-03-03T07:48:49;50.53;;;26.17;;
9761;SDS011;4920;49.594;11.022;2023-03-03T07:51:21;50.67;;;26.67;;
9761;SDS011;4920;49.594;11.022;2023-03-03T07:53:53;48.17;;;25.87;;
9761;SDS011;4920;49.594;11.022;2023-03-03T07:56:38;48.10;;;25.40;;
9761;SDS011;4920;49.594;11.022;2023-03-03T07:59:13;50.63;;;25.93;;
9761;SDS011;4920;49.594;11.022;2023-03-03T08:01:49;47.00;;;25.00;;
9761;SDS011;4920;49.594;11.022;2023-03-03T08:04:22;51.10;;;25.93;;
9761;SDS011;4920;49.594;11.022;2023-03-03T08:06:55;54.50;;;26.23;;
9761;SDS011;4920;49.594;11.022;2023-03-03T08:09:40;45.83;;;25.07;;
9761;SDS011;4920;49.594;11.022;2023-03-03T08:12:15;47.93;;;25.20;;
9761;SDS011;4920;49.594;11.022;2023-03-03T08:15:11;45.63;;;24.67;;
9761;SDS011;4920;49.594;11.022;2023-03-03T08:17:46;47.23;;;24.70;;
9761;SDS011;4920;49.594;11.022;2023-03-03T08:23:17;47.47;;;24.63;;
9761;SDS011;4920;49.594;11.022;2023-03-03T08:25:48;48.77;;;25.03;;
9761;SDS011;4920;49.594;11.022;2023-03-03T08:28:18;44.63;;;24.27;;
9761;SDS011;4920;49.594;11.022;2023-03-03T08:30:48;45.10;;;24.17;;
9761;SDS011;4920;49.594;11.022;2023-03-03T08:33:34;42.83;;;24.23;;
9761;SDS011;4920;49.594;11.022;2023-03-03T08:36:03;43.40;;;24.17;;
9761;SDS011;4920;49.594;11.022;2023-03-03T08:38:35;46.53;;;24.30;;
9761;SDS011;4920;49.594;11.022;2023-03-03T08:41:05;44.53;;;24.03;;
9761;SDS011;4920;49.594;11.022;2023-03-03T08:43:34;45.77;;;23.57;;
9761;SDS011;4920;49.594;11.022;2023-03-03T08:46:03;38.70;;;22.83;;
9761;SDS011;4920;49.594;11.022;2023-03-03T08:48:33;43.83;;;23.63;;
9761;SDS011;4920;49.594;11.022;2023-03-03T08:51:04;42.73;;;23.67;;
9761;SDS011;4920;49.594;11.022;2023-03-03T08:53:33;41.13;;;22.87;;
9761;SDS011;4920;49.594;11.022;2023-03-03T08:56:04;41.77;;;23.47;;
9761;SDS011;4920;49.594;11.022;2023-03-03T08:58:33;37.03;;;21.20;;
9761;SDS011;4920;49.594;11.022;2023-03-03T09:01:02;39.60;;;22.73;;
9761;SDS011;4920;49.594;11.022;2023-03-03T09:03:31;41.37;;;23.53;;
9761;SDS011;4920;49.594;11.022;2023-03-03T09:06:00;40.50;;;22.07;;
9761;SDS011;4920;49.594;11.022;2023-03-03T09:08:29;39.73;;;22.63;;
9761;SDS011;4920;49.594;11.022;2023-03-03T09:11:00;41.90;;;22.53;;
9761;SDS011;4920;49.594;11.022;2023-03-03T09:13:29;41.33;;;23.23;;
9761;SDS011;4920;49.594;11.022;2023-03-03T09:15:58;37.97;;;22.40;;
9761;SDS011;4920;49.594;11.022;2023-03-03T09:18:30;37.77;;;22.03;;
9761;SDS011;4920;49.594;11.022;2023-03-03T09:21:05;39.17;;;23.50;;
9761;SDS011;4920;49.594;11.022;2023-03-03T09:23:47;38.73;;;22.53;;
9761;SDS011;4920;49.594;11.022;2023-03-03T09:26:29;38.60;;;21.80;;
9761;SDS011;4920;49.594;11.022;2023-03-03T09:29:01;37.13;;;22.07;;
9761;SDS011;4920;49.594;11.022;2023-03-03T09:31:46;38.97;;;22.73;;
9761;SDS011;4920;49.594;11.022;2023-03-03T09:34:19;39.20;;;21.60;;
9761;SDS011;4920;49.594;11.022;2023-03-03T09:36:52;37.67;;;21.93;;
9761;SDS011;4920;49.594;11.022;2023-03-03T09:39:23;39.70;;;22.13;;
9761;SDS011;4920;49.594;11.022;2023-03-03T09:42:13;36.73;;;21.87;;
9761;SDS011;4920;49.594;11.022;2023-03-03T09:45:07;37.27;;;22.53;;
9761;SDS011;4920;49.594;11.022;2023-03-03T09:51:10;36.40;;;21.03;;
9761;SDS011;4920;49.594;11.022;2023-03-03T09:54:00;33.57;;;20.93;;
9761;SDS011;4920;49.594;11.022;2023-03-03T09:56:43;34.13;;;20.87;;
9761;SDS011;4920;49.594;11.022;2023-03-03T09:59:25;30.57;;;19.60;;
9761;SDS011;4920;49.594;11.022;2023-03-03T10:02:09;31.57;;;20.07;;
9761;SDS011;4920;49.594;11.022;2023-03-03T10:04:56;33.93;;;21.07;;
9761;SDS011;4920;49.594;11.022;2023-03-03T10:07:42;33.30;;;20.20;;
9761;SDS011;4920;49.594;11.022;2023-03-03T10:10:23;30.47;;;19.03;;
9761;SDS011;4920;49.594;11.022;2023-03-03T10:13:04;31.73;;;19.83;;
9761;SDS011;4920;49.594;11.022;2023-03-03T10:15:45;30.27;;;19.80;;
9761;SDS011;4920;49.594;11.022;2023-03-03T10:18:27;29.37;;;18.67;;
9761;SDS011;4920;49.594;11.022;2023-03-03T10:21:04;29.97;;;19.07;;
9761;SDS011;4920;49.594;11.022;2023-03-03T10:23:41;31.77;;;19.10;;
9761;SDS011;4920;49.594;11.022;2023-03-03T10:26:28;28.90;;;18.07;;
9761;SDS011;4920;49.594;11.022;2023-03-03T10:29:23;30.03;;;17.73;;
9761;SDS011;4920;49.594;11.022;2023-03-03T10:32:08;26.73;;;18.00;;
9761;SDS011;4920;49.594;11.022;2023-03-03T10:35:01;30.17;;;18.67;;
9761;SDS011;4920;49.594;11.022;2023-03-03T10:37:46;29.70;;;18.03;;
9761;SDS011;4920;49.594;11.022;2023-03-03T10:40:22;27.70;;;17.63;;
9761;SDS011;4920;49.594;11.022;2023-03-03T10:43:04;28.63;;;17.23;;
9761;SDS011;4920;49.594;11.022;2023-03-03T10:48:59;26.93;;;16.40;;
9761;SDS011;4920;49.594;11.022;2023-03-03T10:51:38;29.50;;;18.53;;
9761;SDS011;4920;49.594;11.022;2023-03-03T10:54:27;29.33;;;18.57;;
9761;SDS011;4920;49.594;11.022;2023-03-03T10:57:10;28.63;;;17.93;;
9761;SDS011;4920;49.594;11.022;2023-03-03T10:59:52;28.53;;;18.57;;
9761;SDS011;4920;49.594;11.022;2023-03-03T11:02:34;29.00;;;18.03;;
9761;SDS011;4920;49.594;11.022;2023-03-03T11:05:20;26.43;;;17.83;;
9761;SDS011;4920;49.594;11.022;2023-03-03T11:07:56;30.60;;;19.03;;
9761;SDS011;4920;49.594;11.022;2023-03-03T11:13:20;28.63;;;18.80;;
9761;SDS011;4920;49.594;11.022;2023-03-03T11:19:01;29.23;;;17.67;;
9761;SDS011;4920;49.594;11.022;2023-03-03T11:21:40;25.30;;;16.80;;
9761;SDS011;4920;49.594;11.022;2023-03-03T11:24:17;24.43;;;16.57;;
9761;SDS011;4920;49.594;11.022;2023-03-03T11:27:01;25.53;;;16.57;;
9761;SDS011;4920;49.594;11.022;2023-03-03T11:29:47;24.63;;;16.63;;
9761;SDS011;4920;49.594;11.022;2023-03-03T11:32:31;26.83;;;16.13;;
9761;SDS011;4920;49.594;11.022;2023-03-03T11:35:12;24.70;;;16.70;;
9761;SDS011;4920;49.594;11.022;2023-03-03T11:37:53;25.20;;;15.80;;
9761;SDS011;4920;49.594;11.022;2023-03-03T11:40:31;25.27;;;16.40;;
9761;SDS011;4920;49.594;11.022;2023-03-03T11:43:09;22.20;;;15.50;;
9761;SDS011;4920;49.594;11.022;2023-03-03T11:46:02;22.60;;;15.97;;
9761;SDS011;4920;49.594;11.022;2023-03-03T11:48:35;22.00;;;14.93;;
9761;SDS011;4920;49.594;11.022;2023-03-03T11:51:10;22.97;;;15.50;;
9761;SDS011;4920;49.594;11.022;2023-03-03T11:53:47;25.93;;;16.17;;
9761;SDS011;4920;49.594;11.022;2023-03-03T11:56:26;22.67;;;15.37;;
9761;SDS011;4920;49.594;11.022;2023-03-03T11:59:04;20.53;;;14.17;;
9761;SDS011;4920;49.594;11.022;2023-03-03T12:01:52;22.80;;;14.53;;
9761;SDS011;4920;49.594;11.022;2023-03-03T12:04:25;22.53;;;14.93;;
9761;SDS011;4920;49.594;11.022;2023-03-03T12:07:08;21.10;;;14.40;;
9761;SDS011;4920;49.594;11.022;2023-03-03T12:09:50;21.90;;;14.40;;
9761;SDS011;4920;49.594;11.022;2023-03-03T12:12:30;24.17;;;15.50;;
9761;SDS011;4920;49.594;11.022;2023-03-03T12:15:06;22.20;;;15.17;;
9761;SDS011;4920;49.594;11.022;2023-03-03T12:17:53;22.13;;;15.10;;
9761;SDS011;4920;49.594;11.022;2023-03-03T12:20:39;22.77;;;15.10;;
9761;SDS011;4920;49.594;11.022;2023-03-03T12:23:29;22.07;;;15.00;;
9761;SDS011;4920;49.594;11.022;2023-03-03T12:26:10;22.97;;;15.53;;
9761;SDS011;4920;49.594;11.022;2023-03-03T12:28:49;22.87;;;14.60;;
9761;SDS011;4920;49.594;11.022;2023-03-03T12:31:24;24.70;;;15.57;;
9761;SDS011;4920;49.594;11.022;2023-03-03T12:34:03;20.47;;;14.73;;
9761;SDS011;4920;49.594;11.022;2023-03-03T12:36:57;21.47;;;15.03;;
9761;SDS011;4920;49.594;11.022;2023-03-03T12:39:36;23.87;;;15.23;;
9761;SDS011;4920;49.594;11.022;2023-03-03T12:42:16;23.67;;;15.30;;
9761;SDS011;4920;49.594;11.022;2023-03-03T12:44:52;22.47;;;15.13;;
9761;SDS011;4920;49.594;11.022;2023-03-03T12:47:28;23.57;;;15.70;;
9761;SDS011;4920;49.594;11.022;2023-03-03T12:50:09;20.80;;;14.87;;
9761;SDS011;4920;49.594;11.022;2023-03-03T12:52:52;22.00;;;14.07;;
9761;SDS011;4920;49.594;11.022;2023-03-03T12:55:35;23.87;;;13.87;;
9761;SDS011;4920;49.594;11.022;2023-03-03T12:58:14;20.77;;;13.50;;
9761;SDS011;4920;49.594;11.022;2023-03-03T13:00:53;21.67;;;13.47;;
9761;SDS011;4920;49.594;11.022;2023-03-03T13:03:33;20.23;;;14.30;;
9761;SDS011;4920;49.594;11.022;2023-03-03T13:06:22;20.40;;;14.17;;
9761;SDS011;4920;49.594;11.022;2023-03-03T13:09:01;20.07;;;14.17;;
9761;SDS011;4920;49.594;11.022;2023-03-03T13:11:41;19.17;;;13.80;;
9761;SDS011;4920;49.594;11.022;2023-03-03T13:14:23;19.97;;;13.47;;
9761;SDS011;4920;49.594;11.022;2023-03-03T13:17:01;18.83;;;13.43;;
9761;SDS011;4920;49.594;11.022;2023-03-03T13:19:40;21.63;;;13.47;;
9761;SDS011;4920;49.594;11.022;2023-03-03T13:22:16;19.03;;;13.10;;
9761;SDS011;4920;49.594;11.022;2023-03-03T13:24:54;18.63;;;13.10;;
9761;SDS011;4920;49.594;11.022;2023-03-03T13:27:29;18.90;;;13.30;;
9761;SDS011;4920;49.594;11.022;2023-03-03T13:30:07;18.87;;;13.33;;
9761;SDS011;4920;49.594;11.022;2023-03-03T13:32:44;21.17;;;13.50;;
9761;SDS011;4920;49.594;11.022;2023-03-03T13:35:24;20.20;;;13.33;;
9761;SDS011;4920;49.594;11.022;2023-03-03T13:38:00;20.37;;;13.73;;
9761;SDS011;4920;49.594;11.022;2023-03-03T13:40:35;20.50;;;13.43;;
9761;SDS011;4920;49.594;11.022;2023-03-03T13:43:09;18.93;;;13.30;;
9761;SDS011;4920;49.594;11.022;2023-03-03T13:45:50;15.73;;;12.03;;
9761;SDS011;4920;49.594;11.022;2023-03-03T13:48:29;21.07;;;13.50;;
9761;SDS011;4920;49.594;11.022;2023-03-03T13:51:09;18.83;;;13.30;;
9761;SDS011;4920;49.594;11.022;2023-03-03T13:53:51;22.53;;;13.60;;
9761;SDS011;4920;49.594;11.022;2023-03-03T13:56:34;19.07;;;12.97;;
9761;SDS011;4920;49.594;11.022;2023-03-03T13:59:14;18.40;;;12.90;;
9761;SDS011;4920;49.594;11.022;2023-03-03T14:01:56;18.40;;;12.90;;
9761;SDS011;4920;49.594;11.022;2023-03-03T14:04:39;18.37;;;12.90;;
9761;SDS011;4920;49.594;11.022;2023-03-03T14:07:20;19.83;;;13.83;;
9761;SDS011;4920;49.594;11.022;2023-03-03T14:09:59;19.53;;;12.93;;
9761;SDS011;4920;49.594;11.022;2023-03-03T14:12:37;19.47;;;13.30;;
9761;SDS011;4920;49.594;11.022;2023-03-03T14:15:14;17.53;;;13.03;;
9761;SDS011;4920;49.594;11.022;2023-03-03T14:17:56;17.17;;;12.40;;
9761;SDS011;4920;49.594;11.022;2023-03-03T14:20:32;20.13;;;12.63;;
9761;SDS011;4920;49.594;11.022;2023-03-03T14:23:07;21.13;;;12.40;;
9761;SDS011;4920;49.594;11.022;2023-03-03T14:25:56;18.00;;;12.00;;
9761;SDS011;4920;49.594;11.022;2023-03-03T14:28:26;18.20;;;12.27;;
9761;SDS011;4920;49.594;11.022;2023-03-03T14:30:56;17.87;;;12.37;;
9761;SDS011;4920;49.594;11.022;2023-03-03T14:33:38;17.93;;;12.13;;
9761;SDS011;4920;49.594;11.022;2023-03-03T14:36:10;21.53;;;12.63;;
9761;SDS011;4920;49.594;11.022;2023-03-03T14:38:45;19.43;;;13.20;;
9761;SDS011;4920;49.594;11.022;2023-03-03T14:41:18;18.00;;;12.47;;
9761;SDS011;4920;49.594;11.022;2023-03-03T14:43:55;20.33;;;12.63;;
9761;SDS011;4920;49.594;11.022;2023-03-03T14:46:30;18.30;;;11.50;;
9761;SDS011;4920;49.594;11.022;2023-03-03T14:49:04;18.33;;;12.00;;
9761;SDS011;4920;49.594;11.022;2023-03-03T14:51:41;16.43;;;11.87;;
9761;SDS011;4920;49.594;11.022;2023-03-03T14:54:19;17.37;;;12.27;;
9761;SDS011;4920;49.594;11.022;2023-03-03T14:56:59;19.17;;;11.87;;
9761;SDS011;4920;49.594;11.022;2023-03-03T14:59:30;19.90;;;12.40;;
9761;SDS011;4920;49.594;11.022;2023-03-03T15:02:02;17.47;;;11.70;;
9761;SDS011;4920;49.594;11.022;2023-03-03T15:04:52;20.43;;;11.33;;
9761;SDS011;4920;49.594;11.022;2023-03-03T15:07:43;19.87;;;12.07;;
9761;SDS011;4920;49.594;11.022;2023-03-03T15:10:25;20.57;;;12.13;;
9761;SDS011;4920;49.594;11.022;2023-03-03T15:12:55;17.90;;;11.37;;
9761;SDS011;4920;49.594;11.022;2023-03-03T15:15:24;19.63;;;11.90;;
9761;SDS011;4920;49.594;11.022;2023-03-03T15:17:56;17.50;;;11.63;;
9761;SDS011;4920;49.594;11.022;2023-03-03T15:20:37;18.37;;;11.43;;
9761;SDS011;4920;49.594;11.022;2023-03-03T15:23:21;19.87;;;11.53;;
9761;SDS011;4920;49.594;11.022;2023-03-03T15:26:12;16.83;;;10.90;;
9761;SDS011;4920;49.594;11.022;2023-03-03T15:28:52;16.93;;;10.63;;
9761;SDS011;4920;49.594;11.022;2023-03-03T15:31:28;16.07;;;11.50;;
9761;SDS011;4920;49.594;11.022;2023-03-03T15:34:08;17.77;;;11.20;;
9761;SDS011;4920;49.594;11.022;2023-03-03T15:36:54;17.37;;;10.57;;
9761;SDS011;4920;49.594;11.022;2023-03-03T15:39:28;17.80;;;10.83;;
9761;SDS011;4920;49.594;11.022;2023-03-03T15:42:04;15.43;;;10.50;;